Los Lunas ASC

2021-09-20 23:55:00

  • imperial
Date Time Air Temperature Relative Humidity Dewpoint Windchill Heat Index Wind Speed Wind Dir. Rain Solar Radiation Soil Temperature
2m 2m 3m 3m 10cm
US/Mountain F % F F F MPH deg in MJ/m^2 F
max avg avg
2021-09-20 00:05:00 68.8 47.9 48.3 68.8 68.8 2.1 2.8 1.8 191.9 205.1 0.00 0.0000000 81.4
2021-09-20 00:10:00 69.2 47.2 48.3 69.2 69.2 2.1 2.2 1.3 125.4 201.8 0.00 0.0000000 81.3
2021-09-20 00:15:00 70.0 45.9 48.2 70.0 70.0 1.3 2.8 1.7 236.6 253.4 0.00 0.0000000 81.2
2021-09-20 00:20:00 70.9 43.6 47.6 70.9 70.9 1.2 2.4 1.5 287.0 281.3 0.00 0.0000000 81.1
2021-09-20 00:25:00 71.2 42.6 47.3 71.2 71.2 2.1 2.8 2.0 199.4 225.4 0.00 0.0000000 81.0
2021-09-20 00:30:00 71.3 44.3 48.5 71.3 71.3 2.2 3.3 2.6 185.7 201.5 0.00 0.0000000 80.9
2021-09-20 00:35:00 69.6 47.2 48.6 69.6 69.6 2.4 2.8 2.3 185.5 186.0 0.00 0.0000000 80.9
2021-09-20 00:40:00 68.3 49.8 48.8 68.3 68.3 2.2 2.4 1.6 166.6 177.8 0.00 0.0000000 80.8
2021-09-20 00:45:00 67.3 52.4 49.2 67.3 67.3 2.1 2.6 1.8 186.3 178.1 0.00 0.0000000 80.7
2021-09-20 00:50:00 66.5 52.4 48.5 66.5 66.5 2.1 2.8 1.9 177.7 169.6 0.00 0.0000000 80.6
2021-09-20 00:55:00 65.9 54.1 48.8 65.9 65.9 1.9 1.9 1.2 164.8 164.2 0.00 0.0000000 80.5
2021-09-20 01:00:00 65.3 55.1 48.8 65.3 65.3 0.0 2.1 0.4 100.6 167.0 0.00 0.0000000 80.4
2021-09-20 01:05:00 65.1 56.0 49.0 65.1 65.1 1.7 2.2 0.9 197.4 174.1 0.00 0.0000000 80.3
2021-09-20 01:10:00 65.1 54.7 48.4 65.1 65.1 1.5 2.6 1.7 147.4 162.9 0.00 0.0000000 80.2
2021-09-20 01:15:00 65.0 55.1 48.5 65.0 65.0 1.0 1.7 0.9 137.4 164.6 0.00 0.0000000 80.2
2021-09-20 01:20:00 65.3 55.4 48.9 65.3 65.3 0.0 2.1 0.6 78.1 166.9 0.00 0.0000000 80.1
2021-09-20 01:25:00 65.6 52.7 47.9 65.6 65.6 0.0 0.0 0.0 162.3 0.0 0.00 0.0000000 80.0
2021-09-20 01:30:00 65.4 54.1 48.4 65.4 65.4 0.0 1.7 0.3 185.0 141.9 0.00 0.0000000 79.9
2021-09-20 01:35:00 65.2 54.9 48.6 65.2 65.2 0.0 0.0 0.0 154.6 0.0 0.00 0.0000000 79.8
2021-09-20 01:40:00 65.0 54.0 48.0 65.0 65.0 0.0 0.0 0.0 198.1 0.0 0.00 0.0000000 79.7
2021-09-20 01:45:00 64.8 55.4 48.5 64.8 64.8 0.0 0.0 0.0 76.8 0.0 0.00 0.0000000 79.6
2021-09-20 01:50:00 64.3 56.0 48.3 64.3 64.3 0.0 0.0 0.0 86.4 0.0 0.00 0.0000000 79.6
2021-09-20 01:55:00 63.6 57.2 48.2 63.6 63.6 0.0 0.0 0.0 148.0 0.0 0.00 0.0000000 79.4
2021-09-20 02:00:00 63.7 56.0 47.7 63.7 63.7 1.7 2.6 1.4 113.6 148.6 0.00 0.0000000 79.4
2021-09-20 02:05:00 65.8 49.7 46.5 65.8 65.8 2.8 5.3 2.5 148.8 130.0 0.00 0.0000000 79.3
2021-09-20 02:10:00 65.5 54.2 48.5 65.5 65.5 2.1 2.8 2.0 212.8 197.4 0.00 0.0000000 79.2
2021-09-20 02:15:00 64.9 53.0 47.4 64.9 64.9 3.8 4.2 2.0 155.0 179.5 0.00 0.0000000 79.1
2021-09-20 02:20:00 66.1 49.9 46.9 66.1 66.1 2.6 6.5 3.2 201.2 185.8 0.00 0.0000000 79.0
2021-09-20 02:25:00 66.8 48.9 46.9 66.8 66.8 1.0 4.4 2.5 14.2 220.7 0.00 0.0000000 79.0
2021-09-20 02:30:00 66.6 49.5 47.2 66.6 66.6 1.5 3.3 1.9 165.9 199.8 0.00 0.0000000 78.9
2021-09-20 02:35:00 66.7 47.4 46.0 66.7 66.7 0.0 4.7 1.8 163.3 188.0 0.00 0.0000000 78.8
2021-09-20 02:40:00 66.2 49.3 46.7 66.2 66.2 1.3 2.4 1.6 142.5 189.7 0.00 0.0000000 78.7
2021-09-20 02:45:00 65.5 50.4 46.5 65.5 65.5 0.0 1.5 0.1 133.9 134.7 0.00 0.0000000 78.6
2021-09-20 02:50:00 65.0 50.6 46.2 65.0 65.0 0.0 0.0 0.0 128.8 0.0 0.00 0.0000000 78.5
2021-09-20 02:55:00 64.4 51.2 46.0 64.4 64.4 0.8 2.1 0.8 177.4 176.3 0.00 0.0000000 78.5
2021-09-20 03:00:00 64.4 50.4 45.6 64.4 64.4 1.2 1.2 0.1 105.9 119.7 0.00 0.0000000 78.4
2021-09-20 03:05:00 63.9 55.5 47.7 63.9 63.9 0.0 2.8 1.2 210.0 162.2 0.00 0.0000000 78.3
2021-09-20 03:10:00 63.9 53.3 46.6 63.9 63.9 2.4 3.5 2.3 229.1 180.9 0.00 0.0000000 78.2
2021-09-20 03:15:00 64.1 51.4 45.8 64.1 64.1 2.2 3.8 2.6 124.1 168.7 0.00 0.0000000 78.2
2021-09-20 03:20:00 64.8 50.9 46.2 64.8 64.8 2.1 3.7 2.1 113.6 184.3 0.00 0.0000000 78.1
2021-09-20 03:25:00 65.3 49.7 46.0 65.3 65.3 1.3 2.8 1.0 85.6 118.1 0.00 0.0000000 78.0
2021-09-20 03:30:00 65.8 49.7 46.5 65.8 65.8 1.5 3.1 1.7 148.2 179.5 0.00 0.0000000 77.9
2021-09-20 03:35:00 65.6 50.9 46.9 65.6 65.6 1.2 2.2 0.9 83.1 94.8 0.00 0.0000000 77.8
2021-09-20 03:40:00 64.9 52.9 47.3 64.9 64.9 1.9 2.6 1.2 132.4 151.7 0.00 0.0000000 77.8
2021-09-20 03:45:00 64.7 53.1 47.3 64.7 64.7 1.9 3.0 1.7 58.4 134.9 0.00 0.0000000 77.7
2021-09-20 03:50:00 65.5 52.9 47.9 65.5 65.5 2.1 2.4 1.5 189.9 149.6 0.00 0.0000000 77.6
2021-09-20 03:55:00 64.7 53.8 47.6 64.7 64.7 0.0 1.7 0.4 330.7 282.3 0.00 0.0000000 77.5
2021-09-20 04:00:00 63.7 55.1 47.3 63.7 63.7 1.0 1.5 0.7 256.0 265.9 0.00 0.0000000 77.5
2021-09-20 04:05:00 62.8 57.8 47.7 62.8 62.8 0.0 1.7 0.8 187.5 226.2 0.00 0.0000000 77.4
2021-09-20 04:10:00 62.2 59.9 48.1 62.2 62.2 1.5 1.5 1.1 176.6 191.0 0.00 0.0000000 77.3
2021-09-20 04:15:00 62.0 62.6 49.1 62.0 62.0 1.9 1.9 0.7 195.4 185.9 0.00 0.0000000 77.2
2021-09-20 04:20:00 61.3 64.0 49.0 61.3 61.3 0.8 2.1 1.0 199.5 208.7 0.00 0.0000000 77.1
2021-09-20 04:25:00 61.3 62.6 48.4 61.3 61.3 1.5 2.2 1.5 226.7 220.4 0.00 0.0000000 77.1
2021-09-20 04:30:00 62.4 58.2 47.5 62.4 62.4 1.2 3.0 2.0 345.5 246.6 0.00 0.0000000 77.0
2021-09-20 04:35:00 63.6 54.3 46.8 63.6 63.6 2.4 3.8 1.9 282.3 253.3 0.00 0.0000000 76.9
2021-09-20 04:40:00 65.2 50.0 46.1 65.2 65.2 5.5 5.8 3.3 312.9 270.0 0.00 0.0000000 76.9
2021-09-20 04:45:00 67.0 45.6 45.3 67.0 67.0 6.7 6.7 4.3 223.7 246.9 0.00 0.0000000 76.8
2021-09-20 04:50:00 68.2 44.3 45.6 68.2 68.2 5.3 7.4 4.4 206.7 245.3 0.00 0.0000000 76.7
2021-09-20 04:55:00 68.4 43.4 45.3 68.4 68.4 8.5 8.5 4.5 323.5 299.7 0.00 0.0000000 76.7
2021-09-20 05:00:00 68.8 44.0 46.0 68.8 68.8 2.4 8.1 3.8 37.3 274.8 0.00 0.0000000 76.6
2021-09-20 05:05:00 68.5 43.1 45.1 68.5 68.5 4.4 5.6 2.9 233.5 271.3 0.00 0.0000000 76.5
2021-09-20 05:10:00 68.3 44.0 45.6 68.3 68.3 1.9 3.8 1.7 195.7 82.2 0.00 0.0000000 76.5
2021-09-20 05:15:00 67.7 44.9 45.6 67.7 67.7 1.5 4.2 1.4 175.6 187.1 0.00 0.0000000 76.4
2021-09-20 05:20:00 66.7 48.3 46.5 66.7 66.7 0.0 2.4 1.0 197.3 171.8 0.00 0.0000000 76.3
2021-09-20 05:25:00 66.3 49.4 46.7 66.3 66.3 1.0 2.8 1.4 215.9 168.4 0.00 0.0000000 76.3
2021-09-20 05:30:00 66.6 47.4 45.9 66.6 66.6 2.4 6.3 3.3 214.4 226.6 0.00 0.0000000 76.2
2021-09-20 05:35:00 66.6 48.2 46.4 66.6 66.6 3.3 6.3 2.7 234.8 240.5 0.00 0.0000000 76.1
2021-09-20 05:40:00 66.9 47.9 46.5 66.9 66.9 4.4 4.6 2.9 248.1 241.5 0.00 0.0000000 76.1
2021-09-20 05:45:00 67.1 47.9 46.7 67.1 67.1 3.8 6.2 4.3 273.0 234.3 0.00 0.0000000 76.0
2021-09-20 05:50:00 67.0 48.6 47.0 67.0 67.0 3.5 6.0 3.7 271.3 233.6 0.00 0.0000000 76.0
2021-09-20 05:55:00 66.9 48.8 47.0 66.9 66.9 4.4 8.3 4.2 291.2 240.4 0.00 0.0000000 75.9
2021-09-20 06:00:00 66.9 49.6 47.4 66.9 66.9 2.2 6.0 3.3 237.0 253.0 0.00 0.0000000 75.8
2021-09-20 06:05:00 66.8 50.2 47.6 66.8 66.8 2.6 7.6 3.6 228.2 251.2 0.00 0.0000000 75.8
2021-09-20 06:10:00 66.4 50.9 47.6 66.4 66.4 5.8 5.8 3.7 261.6 265.3 0.00 0.0000000 75.7
2021-09-20 06:15:00 65.9 52.3 48.0 65.9 65.9 3.0 7.8 3.7 284.5 268.3 0.00 0.0000000 75.7
2021-09-20 06:20:00 65.6 52.7 47.8 65.6 65.6 3.5 6.7 3.6 278.7 263.3 0.00 0.0000000 75.6
2021-09-20 06:25:00 65.8 52.7 48.0 65.8 65.8 6.3 8.1 4.1 295.3 272.0 0.00 0.0000000 75.6
2021-09-20 06:30:00 65.5 53.1 48.0 65.5 65.5 3.1 8.8 3.8 275.7 272.0 0.00 0.0000000 75.5
2021-09-20 06:35:00 64.7 54.7 48.0 64.7 64.7 5.3 6.2 4.2 322.7 298.3 0.00 0.0000000 75.4
2021-09-20 06:40:00 63.9 56.3 48.0 63.9 63.9 4.6 5.5 3.5 250.0 282.0 0.00 0.0010000 75.4
2021-09-20 06:45:00 63.4 57.7 48.3 63.4 63.4 3.7 6.9 4.2 299.4 274.9 0.00 0.0010000 75.3
2021-09-20 06:50:00 63.0 58.1 48.0 63.0 63.0 2.4 5.5 3.3 273.4 267.2 0.00 0.0020000 75.3
2021-09-20 06:55:00 63.6 56.8 47.9 63.6 63.6 5.3 12.4 6.3 223.7 281.8 0.00 0.0040000 75.2
2021-09-20 07:00:00 64.5 55.1 48.0 64.5 64.5 9.4 9.4 7.1 271.2 286.6 0.00 0.0060000 75.2
2021-09-20 07:05:00 64.6 54.7 47.9 64.6 64.6 5.1 9.9 6.6 303.7 285.5 0.00 0.0080000 75.1
2021-09-20 07:10:00 64.5 54.9 47.9 64.5 64.5 2.1 6.0 4.1 326.8 273.0 0.00 0.0110000 75.1
2021-09-20 07:15:00 64.5 54.5 47.8 64.5 64.5 2.4 5.8 3.2 245.7 273.8 0.00 0.0140000 75.0
2021-09-20 07:20:00 65.2 52.7 47.5 65.2 65.2 3.5 6.5 3.8 221.1 268.5 0.00 0.0160000 75.0
2021-09-20 07:25:00 65.1 53.4 47.8 65.1 65.1 3.3 3.8 2.4 237.6 251.3 0.00 0.0180000 74.9
2021-09-20 07:30:00 64.8 54.4 48.0 64.8 64.8 2.8 4.7 3.2 280.3 247.1 0.00 0.0200000 74.9
2021-09-20 07:35:00 64.7 53.8 47.6 64.7 64.7 2.2 5.1 3.2 247.4 253.7 0.00 0.0220000 74.8
2021-09-20 07:40:00 65.6 51.0 46.9 65.6 65.6 3.0 6.9 3.7 260.6 263.4 0.00 0.0240000 74.8
2021-09-20 07:45:00 66.4 48.5 46.4 66.4 66.4 3.3 8.5 3.7 289.6 261.5 0.00 0.0250000 74.7
2021-09-20 07:50:00 67.1 47.3 46.4 67.1 67.1 3.8 8.0 4.7 268.1 272.8 0.00 0.0270000 74.7
2021-09-20 07:55:00 67.6 46.7 46.5 67.6 67.6 4.7 7.6 4.5 274.1 275.6 0.00 0.0280000 74.6
2021-09-20 08:00:00 67.8 46.4 46.5 67.8 67.8 4.7 6.0 4.1 228.0 261.7 0.00 0.0300000 74.6
2021-09-20 08:05:00 68.1 45.7 46.3 68.1 68.1 4.9 5.6 4.0 267.2 254.6 0.00 0.0320000 74.6
2021-09-20 08:10:00 68.4 45.7 46.6 68.4 68.4 3.3 4.9 3.2 249.6 250.9 0.00 0.0310000 74.5
2021-09-20 08:15:00 68.8 45.0 46.5 68.8 68.8 5.5 8.7 4.7 260.7 246.7 0.00 0.0370000 74.5
2021-09-20 08:20:00 69.2 44.4 46.6 69.2 69.2 1.9 7.2 3.4 309.6 263.4 0.00 0.2180000 74.5
2021-09-20 08:25:00 69.6 42.4 45.8 69.6 69.6 2.8 6.2 4.0 270.4 253.4 0.00 0.2330000 74.4
2021-09-20 08:30:00 70.5 40.4 45.3 70.5 70.5 2.6 8.5 4.6 309.5 259.2 0.00 0.2470000 74.4
2021-09-20 08:35:00 71.1 37.9 44.1 71.1 71.1 3.5 9.0 5.2 288.4 260.4 0.00 0.2620000 74.4
2021-09-20 08:40:00 71.3 37.3 43.9 71.3 71.3 5.8 7.8 4.4 313.7 263.4 0.00 0.2780000 74.4
2021-09-20 08:45:00 71.5 37.4 44.1 71.5 71.5 4.4 7.2 4.9 278.8 266.5 0.00 0.2970000 74.3
2021-09-20 08:50:00 71.8 38.6 45.3 71.8 71.8 3.7 11.7 5.4 232.3 272.3 0.00 0.3140000 74.3
2021-09-20 08:55:00 72.3 35.8 43.7 72.3 72.3 6.9 11.0 6.4 295.1 275.3 0.00 0.3290000 74.3
2021-09-20 09:00:00 72.5 34.4 42.8 72.5 72.5 6.2 11.7 5.5 231.4 273.1 0.00 0.3450000 74.3
2021-09-20 09:05:00 72.8 35.2 43.7 72.8 72.8 4.7 9.9 5.6 248.7 267.6 0.00 0.3600000 74.3
2021-09-20 09:10:00 73.0 34.4 43.2 73.0 73.0 5.5 10.5 6.5 299.0 250.7 0.00 0.3800000 74.3
2021-09-20 09:15:00 73.0 33.6 42.6 73.0 73.0 9.2 10.1 6.3 238.1 241.4 0.00 0.3940000 74.3
2021-09-20 09:20:00 73.6 33.4 43.0 73.6 73.6 3.5 11.3 6.2 248.3 257.5 0.00 0.4080000 74.3
2021-09-20 09:25:00 74.7 30.7 41.8 74.7 74.7 6.2 9.2 5.8 272.5 267.2 0.00 0.4210000 74.3
2021-09-20 09:30:00 74.9 30.5 41.8 74.9 74.9 8.8 13.5 7.3 270.3 277.8 0.00 0.4360000 74.3
2021-09-20 09:35:00 75.1 30.1 41.6 75.1 75.1 8.7 10.6 6.5 321.0 277.6 0.00 0.4490000 74.4
2021-09-20 09:40:00 75.7 30.4 42.4 75.7 75.7 6.3 10.3 6.2 233.4 276.0 0.00 0.4660000 74.4
2021-09-20 09:45:00 75.6 29.7 41.7 75.6 75.6 6.0 13.7 7.1 303.4 281.8 0.00 0.4790000 74.5
2021-09-20 09:50:00 75.8 28.4 40.8 75.8 75.8 13.1 13.1 7.5 298.0 280.6 0.00 0.4930000 74.6
2021-09-20 09:55:00 76.2 28.9 41.5 76.2 76.2 6.7 16.0 7.8 298.3 282.3 0.00 0.5050000 74.7
2021-09-20 10:00:00 76.5 29.4 42.3 76.5 76.5 4.7 11.0 6.9 260.0 284.7 0.00 0.5200000 74.8
2021-09-20 10:05:00 77.1 28.5 42.0 77.1 77.1 7.1 9.2 5.3 231.3 280.0 0.00 0.5330000 74.9
2021-09-20 10:10:00 78.1 26.8 41.2 78.1 78.1 6.9 9.0 4.8 314.3 266.1 0.00 0.5460000 75.1
2021-09-20 10:15:00 78.3 27.4 41.9 78.3 78.3 4.0 9.6 5.5 298.4 279.1 0.00 0.5590000 75.2
2021-09-20 10:20:00 78.3 26.8 41.4 78.3 78.3 5.5 9.7 5.3 304.0 292.3 0.00 0.5710000 75.4
2021-09-20 10:25:00 78.0 28.0 42.2 78.0 78.0 3.7 9.7 6.5 172.7 292.4 0.00 0.5810000 75.5
2021-09-20 10:30:00 78.2 26.7 41.2 78.2 78.2 3.3 12.1 5.6 294.3 272.5 0.00 0.5930000 75.7
2021-09-20 10:35:00 78.5 27.3 42.0 78.5 78.5 4.2 9.0 5.6 291.9 284.4 0.00 0.6050000 75.9
2021-09-20 10:40:00 78.7 26.8 41.8 78.7 78.7 5.1 9.2 4.9 270.1 270.1 0.00 0.6150000 76.0
2021-09-20 10:45:00 78.4 25.8 40.4 78.4 78.4 5.8 10.6 6.3 220.5 283.3 0.00 0.6240000 76.3
2021-09-20 10:50:00 78.6 26.0 40.8 78.6 78.6 4.2 8.1 5.3 0.9 275.6 0.00 0.6360000 76.4
2021-09-20 10:55:00 78.4 26.5 41.1 78.4 78.4 4.6 9.6 5.1 299.0 254.9 0.00 0.6470000 76.6
2021-09-20 11:00:00 79.3 24.8 40.2 79.3 79.3 3.3 7.2 4.6 304.7 302.0 0.00 0.6550000 76.9
2021-09-20 11:05:00 78.9 25.8 40.9 78.9 78.9 3.3 9.2 5.7 287.1 331.0 0.00 0.6640000 77.0
2021-09-20 11:10:00 79.1 24.4 39.7 79.1 79.1 7.1 7.1 4.3 252.7 265.7 0.00 0.6720000 77.3
2021-09-20 11:15:00 79.6 23.5 39.1 79.6 79.6 5.5 8.3 5.3 293.0 284.8 0.00 0.6810000 77.5
2021-09-20 11:20:00 79.6 25.1 40.8 79.6 79.6 2.2 11.3 6.0 310.2 291.2 0.00 0.6890000 77.7
2021-09-20 11:25:00 80.0 23.5 39.5 80.0 80.0 3.3 11.3 5.1 271.6 281.2 0.00 0.6960000 77.9
2021-09-20 11:30:00 79.7 23.1 38.8 79.7 79.7 3.5 10.6 6.4 225.9 275.6 0.00 0.7010000 78.1
2021-09-20 11:35:00 79.7 23.0 38.6 79.7 79.7 5.8 8.3 4.8 272.6 250.4 0.00 0.7070000 78.4
2021-09-20 11:40:00 80.2 22.5 38.5 80.2 80.2 6.2 9.6 5.8 316.7 280.3 0.00 0.7150000 78.6
2021-09-20 11:45:00 80.0 22.3 38.1 80.0 80.0 5.3 9.2 5.5 225.1 283.3 0.00 0.7200000 78.9
2021-09-20 11:50:00 80.5 23.1 39.5 80.5 80.5 2.6 7.8 4.8 18.3 295.4 0.00 0.7280000 79.1
2021-09-20 11:55:00 81.1 23.9 40.8 81.1 81.1 4.9 7.6 4.1 304.1 312.9 0.00 0.7330000 79.3
2021-09-20 12:00:00 81.0 22.4 39.0 81.0 81.0 2.1 9.9 4.9 28.3 289.1 0.00 0.7360000 79.6
2021-09-20 12:05:00 80.7 24.5 41.1 80.7 80.7 3.5 6.5 3.3 57.1 274.7 0.00 0.7430000 79.8
2021-09-20 12:10:00 80.8 21.8 38.2 80.8 80.8 7.8 7.8 4.0 282.6 317.5 0.00 0.7450000 80.1
2021-09-20 12:15:00 81.1 22.4 39.1 81.1 81.1 3.1 8.1 5.2 191.3 263.0 0.00 0.7490000 80.3
2021-09-20 12:20:00 81.2 21.4 38.1 81.2 81.2 3.7 7.4 4.3 232.3 308.3 0.00 0.7540000 80.5
2021-09-20 12:25:00 81.6 22.1 39.2 81.6 81.6 3.8 9.2 5.2 304.5 265.1 0.00 0.6990000 80.8
2021-09-20 12:30:00 82.3 21.0 38.5 82.3 82.3 2.1 4.4 2.9 180.0 8.8 0.00 0.7580000 81.0
2021-09-20 12:35:00 82.0 22.0 39.3 82.0 82.0 3.3 10.1 4.6 343.3 237.0 0.00 0.7600000 81.3
2021-09-20 12:40:00 81.7 26.6 44.1 81.7 81.7 3.3 8.7 4.3 182.4 257.3 0.00 0.7630000 81.5
2021-09-20 12:45:00 82.6 22.4 40.3 82.6 82.6 2.2 4.7 2.9 276.7 13.6 0.00 0.7640000 81.8
2021-09-20 12:50:00 82.6 19.2 36.4 82.6 82.6 1.5 7.2 3.7 12.4 285.8 0.00 0.7650000 82.0
2021-09-20 12:55:00 83.4 19.4 37.3 83.4 83.4 5.6 8.0 4.2 14.7 343.5 0.00 0.7700000 82.3
2021-09-20 13:00:00 83.1 18.7 36.2 83.1 83.1 3.1 7.8 5.1 287.7 272.7 0.00 0.7680000 82.5
2021-09-20 13:05:00 82.6 20.8 38.5 82.6 82.6 5.1 10.3 5.7 187.9 230.5 0.00 0.7690000 82.7
2021-09-20 13:10:00 82.7 18.4 35.4 82.7 82.7 2.2 6.3 4.0 114.5 181.1 0.00 0.7710000 83.0
2021-09-20 13:15:00 84.1 17.7 35.6 84.1 84.1 6.3 7.8 3.5 257.6 316.0 0.00 0.7690000 83.2
2021-09-20 13:20:00 83.4 17.7 35.0 83.4 83.4 7.8 8.8 5.8 228.6 237.9 0.00 0.7650000 83.5
2021-09-20 13:25:00 82.6 18.6 35.7 82.6 82.6 8.8 9.7 7.7 239.5 234.8 0.00 0.7600000 83.7
2021-09-20 13:30:00 83.4 18.6 36.2 83.4 83.4 4.9 8.0 4.3 236.3 255.2 0.00 0.7620000 83.9
2021-09-20 13:35:00 84.0 20.7 39.4 84.0 84.0 2.2 7.2 3.5 196.1 261.5 0.00 0.7630000 84.2
2021-09-20 13:40:00 84.6 17.7 36.0 84.6 84.6 2.4 8.5 4.5 230.9 268.2 0.00 0.7600000 84.4
2021-09-20 13:45:00 84.5 16.9 34.7 84.5 84.5 3.5 8.5 4.4 329.4 275.7 0.00 0.7560000 84.6
2021-09-20 13:50:00 83.9 18.6 36.7 83.9 83.9 1.3 10.1 4.7 133.5 267.0 0.00 0.7510000 84.9
2021-09-20 13:55:00 84.8 17.8 36.4 84.8 84.8 3.0 7.8 3.9 280.2 249.2 0.00 0.7490000 85.1
2021-09-20 14:00:00 84.9 17.3 35.6 84.9 84.9 2.2 5.8 3.6 259.6 327.0 0.00 0.7410000 85.3
2021-09-20 14:05:00 85.3 16.6 35.0 85.3 85.3 3.7 5.5 3.2 234.0 243.8 0.00 0.7410000 85.5
2021-09-20 14:10:00 85.5 16.6 35.1 85.5 85.5 4.0 8.0 4.2 267.6 282.3 0.00 0.7350000 85.7
2021-09-20 14:15:00 85.3 16.6 34.9 85.3 85.3 3.8 5.6 3.5 248.9 333.9 0.00 0.7280000 85.9
2021-09-20 14:20:00 86.2 16.6 35.7 86.2 86.2 3.8 6.9 3.4 124.6 290.4 0.00 0.7260000 86.1
2021-09-20 14:25:00 86.4 15.4 33.9 86.4 86.4 4.2 5.3 3.0 198.8 305.7 0.00 0.7150000 86.3
2021-09-20 14:30:00 86.2 17.0 36.3 86.2 86.2 1.0 4.6 2.0 335.6 244.0 0.00 0.7130000 86.5
2021-09-20 14:35:00 85.9 16.4 35.2 85.9 85.9 1.9 6.0 3.1 22.7 266.5 0.00 0.7000000 86.7
2021-09-20 14:40:00 86.5 16.1 35.1 86.5 86.5 4.0 6.2 3.6 275.0 357.8 0.00 0.6920000 86.9
2021-09-20 14:45:00 86.3 15.5 33.9 86.3 86.3 2.1 5.3 2.9 251.1 344.4 0.00 0.6880000 87.1
2021-09-20 14:50:00 86.0 16.8 35.9 86.0 86.0 3.0 6.0 3.0 47.0 227.2 0.00 0.6800000 87.3
2021-09-20 14:55:00 87.0 15.4 34.5 87.0 87.0 3.1 7.1 3.8 246.6 269.0 0.00 0.6740000 87.5
2021-09-20 15:00:00 87.4 14.8 33.7 87.4 87.4 3.7 7.2 3.6 338.1 308.2 0.00 0.6690000 87.7
2021-09-20 15:05:00 86.8 14.3 32.4 86.8 86.8 8.1 9.2 5.5 275.4 299.8 0.00 0.6570000 87.9
2021-09-20 15:10:00 86.9 14.9 33.5 86.9 86.9 3.7 7.2 4.9 232.8 300.6 0.00 0.6440000 88.0
2021-09-20 15:15:00 87.3 14.9 33.8 87.3 87.3 4.2 8.1 4.5 276.4 309.0 0.00 0.6360000 88.2
2021-09-20 15:20:00 86.8 15.4 34.2 86.8 86.8 5.5 9.9 5.9 293.4 279.6 0.00 0.6230000 88.3
2021-09-20 15:25:00 86.8 14.5 32.8 86.8 86.8 4.6 8.0 4.4 292.5 304.4 0.00 0.6140000 88.5
2021-09-20 15:30:00 86.6 14.6 32.8 86.6 86.6 4.9 10.1 5.7 286.6 296.1 0.00 0.0560000 88.6
2021-09-20 15:35:00 86.6 14.8 33.1 86.6 86.6 2.2 10.5 5.9 175.2 268.6 0.00 0.5900000 88.7
2021-09-20 15:40:00 87.4 13.9 32.2 87.4 87.4 2.6 7.8 3.8 226.8 308.5 0.00 0.5790000 88.9
2021-09-20 15:45:00 88.0 14.3 33.4 88.0 88.0 4.7 7.4 4.5 274.1 265.0 0.00 0.0440000 89.0
2021-09-20 15:50:00 88.5 13.9 33.0 88.5 88.5 1.9 7.6 3.6 266.9 276.1 0.00 0.5570000 89.2
2021-09-20 15:55:00 88.2 13.7 32.5 88.2 88.2 4.2 8.1 4.6 343.7 288.0 0.00 0.5420000 89.3
2021-09-20 16:00:00 88.6 13.6 32.6 88.6 88.6 4.7 4.9 3.2 33.5 348.3 0.00 0.5330000 89.4
2021-09-20 16:05:00 88.0 18.1 39.4 88.0 88.0 2.6 6.2 3.0 221.5 230.6 0.00 0.5200000 89.5
2021-09-20 16:10:00 87.2 14.5 33.2 87.2 87.2 10.5 10.5 5.3 300.7 247.0 0.00 0.5060000 89.6
2021-09-20 16:15:00 87.5 15.6 35.1 87.5 87.5 1.9 9.7 6.0 160.9 254.2 0.00 0.4940000 89.7
2021-09-20 16:20:00 87.7 14.0 32.6 87.7 87.7 6.3 7.2 3.8 342.5 263.4 0.00 0.4790000 89.7
2021-09-20 16:25:00 87.2 14.3 32.7 87.2 87.2 2.8 8.5 4.4 320.6 359.7 0.00 0.4670000 89.8
2021-09-20 16:30:00 88.1 14.0 32.9 88.1 88.1 4.9 7.8 3.9 51.1 267.7 0.00 0.4510000 89.9
2021-09-20 16:35:00 88.5 14.3 33.7 88.5 88.5 5.8 8.1 4.8 316.7 324.7 0.00 0.4350000 90.0
2021-09-20 16:40:00 87.6 14.6 33.6 87.6 87.6 3.1 6.7 4.6 275.1 305.0 0.00 0.4200000 90.0
2021-09-20 16:45:00 87.5 14.0 32.5 87.5 87.5 4.2 7.4 4.5 10.0 338.8 0.00 0.4040000 90.1
2021-09-20 16:50:00 87.6 14.0 32.6 87.6 87.6 3.5 6.2 3.7 221.4 309.7 0.00 0.3900000 90.1
2021-09-20 16:55:00 88.2 14.1 33.2 88.2 88.2 7.1 7.4 4.8 281.5 264.6 0.00 0.3750000 90.2
2021-09-20 17:00:00 87.8 14.3 33.2 87.8 87.8 5.1 7.8 5.5 259.8 289.1 0.00 0.3580000 90.2
2021-09-20 17:05:00 87.6 14.8 34.0 87.6 87.6 6.9 8.7 4.8 336.5 287.5 0.00 0.3300000 90.2
2021-09-20 17:10:00 86.9 15.3 34.1 86.9 86.9 2.1 6.0 3.7 61.0 307.5 0.00 0.1150000 90.2
2021-09-20 17:15:00 86.8 15.2 33.8 86.8 86.8 4.0 6.2 3.2 120.1 326.6 0.00 0.0320000 90.1
2021-09-20 17:20:00 87.0 15.4 34.4 87.0 87.0 3.3 8.5 4.7 297.0 292.0 0.00 0.0320000 90.1
2021-09-20 17:25:00 86.6 15.4 34.1 86.6 86.6 4.7 9.7 4.7 279.5 257.5 0.00 0.0310000 90.1
2021-09-20 17:30:00 86.3 15.6 34.3 86.3 86.3 3.0 7.8 5.0 259.7 282.8 0.00 0.0300000 90.1
2021-09-20 17:35:00 86.1 15.9 34.6 86.1 86.1 5.3 7.6 4.4 265.0 300.7 0.00 0.0300000 89.9
2021-09-20 17:40:00 86.2 15.8 34.5 86.2 86.2 3.8 8.1 4.3 143.0 275.8 0.00 0.0290000 89.9
2021-09-20 17:45:00 85.8 15.8 34.1 85.8 85.8 2.2 8.0 4.0 26.2 261.4 0.00 0.0290000 89.7
2021-09-20 17:50:00 86.1 16.1 34.8 86.1 86.1 2.2 5.3 2.7 272.7 307.4 0.00 0.0280000 89.7
2021-09-20 17:55:00 85.9 16.0 34.5 85.9 85.9 3.1 7.1 4.0 266.5 264.3 0.00 0.0280000 89.5
2021-09-20 18:00:00 85.7 15.9 34.3 85.7 85.7 6.3 8.3 3.9 285.7 312.3 0.00 0.0270000 89.4
2021-09-20 18:05:00 85.9 15.8 34.1 85.9 85.9 4.9 8.3 4.5 294.9 283.0 0.00 0.0260000 89.3
2021-09-20 18:10:00 85.5 15.6 33.6 85.5 85.5 4.0 7.1 3.8 264.5 259.3 0.00 0.0250000 89.2
2021-09-20 18:15:00 85.6 16.2 34.6 85.6 85.6 3.1 6.7 3.6 316.2 263.0 0.00 0.0240000 89.0
2021-09-20 18:20:00 85.2 17.2 35.7 85.2 85.2 2.1 5.3 3.5 255.9 256.3 0.00 0.0210000 88.9
2021-09-20 18:25:00 85.1 16.3 34.4 85.1 85.1 6.9 7.4 3.7 233.4 234.5 0.00 0.0210000 88.8
2021-09-20 18:30:00 84.9 16.6 34.6 84.9 84.9 1.9 7.2 4.5 206.7 235.7 0.00 0.0180000 88.6
2021-09-20 18:35:00 84.5 17.6 35.7 84.5 84.5 3.0 3.3 2.0 0.0 256.1 0.00 0.0160000 88.5
2021-09-20 18:40:00 83.7 17.1 34.4 83.7 83.7 2.6 4.0 1.8 279.4 267.5 0.00 0.0140000 88.4
2021-09-20 18:45:00 83.2 16.6 33.3 83.2 83.2 2.2 3.0 1.8 13.4 286.6 0.00 0.0090000 88.2
2021-09-20 18:50:00 82.8 17.0 33.5 82.8 82.8 3.5 4.6 2.6 343.7 302.7 0.00 0.0070000 88.1
2021-09-20 18:55:00 82.8 16.4 32.6 82.8 82.8 1.9 4.0 2.6 291.7 301.8 0.00 0.0050000 88.0
2021-09-20 19:00:00 82.3 16.5 32.5 82.3 82.3 1.3 5.3 2.7 274.4 297.3 0.00 0.0040000 87.8
2021-09-20 19:05:00 82.0 16.4 32.0 82.0 82.0 2.6 3.1 1.9 253.1 267.2 0.00 0.0020000 87.7
2021-09-20 19:10:00 81.1 18.1 33.7 81.1 81.1 1.2 3.0 1.8 280.8 231.4 0.00 0.0020000 87.6
2021-09-20 19:15:00 79.8 18.1 32.6 79.8 79.8 2.8 2.8 1.3 265.8 255.5 0.00 0.0010000 87.4
2021-09-20 19:20:00 79.3 17.9 32.0 79.3 79.3 3.1 4.0 2.3 335.9 328.2 0.00 0.0000000 87.3
2021-09-20 19:25:00 79.5 17.9 32.1 79.5 79.5 3.7 4.4 3.0 16.1 14.4 0.00 0.0000000 87.2
2021-09-20 19:30:00 80.0 17.5 32.0 80.0 80.0 3.8 6.2 3.7 22.2 23.0 0.00 0.0000000 87.0
2021-09-20 19:35:00 80.0 17.3 31.8 80.0 80.0 4.0 4.7 3.4 48.0 26.0 0.00 0.0000000 86.8
2021-09-20 19:40:00 78.8 19.9 34.1 78.8 78.8 5.5 6.2 4.0 13.7 30.4 0.00 0.0000000 86.7
2021-09-20 19:45:00 78.1 18.3 31.5 78.1 78.1 7.1 9.2 6.1 32.3 26.6 0.00 0.0000000 86.6
2021-09-20 19:50:00 78.2 19.0 32.5 78.2 78.2 4.9 8.1 6.4 24.4 21.1 0.00 0.0000000 86.5
2021-09-20 19:55:00 77.7 18.6 31.7 77.7 77.7 6.5 7.6 5.2 39.2 12.3 0.00 0.0000000 86.3
2021-09-20 20:00:00 77.2 19.6 32.6 77.2 77.2 5.1 8.0 5.9 53.3 23.5 0.00 0.0000000 86.2
2021-09-20 20:05:00 76.5 19.6 31.9 76.5 76.5 6.7 8.1 5.6 16.4 30.1 0.00 0.0000000 86.1
2021-09-20 20:10:00 76.1 20.9 33.2 76.1 76.1 4.0 6.3 5.1 36.9 32.6 0.00 0.0000000 85.9
2021-09-20 20:15:00 75.5 20.6 32.3 75.5 75.5 5.8 6.9 5.3 39.0 30.7 0.00 0.0000000 85.8
2021-09-20 20:20:00 75.2 20.6 32.1 75.2 75.2 6.2 6.2 4.7 45.0 27.1 0.00 0.0000000 85.7
2021-09-20 20:25:00 74.6 20.9 31.9 74.6 74.6 4.7 5.8 4.6 41.9 28.7 0.00 0.0000000 85.6
2021-09-20 20:30:00 74.3 20.9 31.8 74.3 74.3 6.0 6.7 4.4 15.9 28.0 0.00 0.0000000 85.4
2021-09-20 20:35:00 73.7 22.1 32.6 73.7 73.7 3.8 6.5 4.4 48.7 28.1 0.00 0.0000000 85.3
2021-09-20 20:40:00 74.2 21.3 32.1 74.2 74.2 6.2 6.2 4.5 31.0 26.2 0.00 0.0000000 85.2
2021-09-20 20:45:00 74.0 21.7 32.4 74.0 74.0 2.8 5.8 4.5 36.3 30.0 0.00 0.0000000 85.0
2021-09-20 20:50:00 73.3 22.5 32.7 73.3 73.3 4.2 6.0 4.0 35.3 32.8 0.00 0.0000000 84.8
2021-09-20 20:55:00 73.0 22.9 32.9 73.0 73.0 3.3 6.0 4.1 22.9 28.9 0.00 0.0000000 84.8
2021-09-20 21:00:00 72.2 23.9 33.3 72.2 72.2 2.8 3.8 3.1 27.2 31.6 0.00 0.0000000 84.6
2021-09-20 21:05:00 71.3 24.8 33.5 71.3 71.3 2.6 3.5 2.6 41.5 35.2 0.00 0.0000000 84.5
2021-09-20 21:10:00 70.4 25.8 33.7 70.4 70.4 1.3 2.6 2.2 16.7 38.3 0.00 0.0000000 84.4
2021-09-20 21:15:00 69.5 26.2 33.3 69.5 69.5 2.2 3.0 2.2 51.4 40.3 0.00 0.0000000 84.3
2021-09-20 21:20:00 69.3 26.7 33.6 69.3 69.3 2.4 3.1 2.5 38.8 40.6 0.00 0.0000000 84.1
2021-09-20 21:25:00 69.1 26.6 33.4 69.1 69.1 2.2 2.8 2.3 14.6 35.5 0.00 0.0000000 84.0
2021-09-20 21:30:00 69.2 26.0 32.9 69.2 69.2 2.8 3.1 2.6 44.6 32.8 0.00 0.0000000 83.9
2021-09-20 21:35:00 69.4 25.2 32.2 69.4 69.4 3.1 4.7 3.3 32.0 24.4 0.00 0.0000000 83.8
2021-09-20 21:40:00 69.5 24.8 31.9 69.5 69.5 3.1 4.2 3.6 9.1 30.7 0.00 0.0000000 83.6
2021-09-20 21:45:00 69.6 25.0 32.2 69.6 69.6 3.3 4.6 3.5 49.2 33.3 0.00 0.0000000 83.5
2021-09-20 21:50:00 69.7 24.6 31.9 69.7 69.7 3.5 4.7 3.4 343.1 24.8 0.00 0.0000000 83.4
2021-09-20 21:55:00 69.7 23.6 30.9 69.7 69.7 3.8 4.6 3.7 16.0 23.3 0.00 0.0000000 83.3
2021-09-20 22:00:00 70.1 23.0 30.6 70.1 70.1 4.0 5.8 3.6 30.9 19.5 0.00 0.0000000 83.2
2021-09-20 22:05:00 70.4 22.9 30.7 70.4 70.4 4.6 5.8 3.4 39.4 27.3 0.00 0.0000000 83.0
2021-09-20 22:10:00 70.2 23.9 31.6 70.2 70.2 2.2 4.0 3.0 326.5 20.8 0.00 0.0000000 82.9
2021-09-20 22:15:00 70.0 23.2 30.7 70.0 70.0 4.4 4.4 2.6 8.8 20.1 0.00 0.0000000 82.8
2021-09-20 22:20:00 69.9 23.7 31.2 69.9 69.9 3.1 4.2 3.2 31.7 27.6 0.00 0.0000000 82.7
2021-09-20 22:25:00 68.9 26.5 33.0 68.9 68.9 2.8 4.0 2.9 32.6 35.4 0.00 0.0000000 82.6
2021-09-20 22:30:00 68.0 26.4 32.2 68.0 68.0 2.4 3.8 2.7 32.6 32.0 0.00 0.0000000 82.5
2021-09-20 22:35:00 68.0 26.1 31.9 68.0 68.0 3.1 4.2 2.6 29.4 32.1 0.00 0.0000000 82.4
2021-09-20 22:40:00 67.7 25.3 30.9 67.7 67.7 2.6 3.8 2.6 40.9 27.9 0.00 0.0000000 82.2
2021-09-20 22:45:00 66.9 26.2 31.0 66.9 66.9 3.1 4.0 2.6 35.3 29.9 0.00 0.0000000 82.2
2021-09-20 22:50:00 67.3 25.6 30.8 67.3 67.3 3.0 4.4 2.8 32.9 17.5 0.00 0.0000000 82.0
2021-09-20 22:55:00 67.7 24.8 30.3 67.7 67.7 2.6 4.4 3.2 24.0 21.1 0.00 0.0000000 81.9
2021-09-20 23:00:00 68.2 24.4 30.4 68.2 68.2 3.0 4.0 3.1 23.4 20.7 0.00 0.0000000 81.8
2021-09-20 23:05:00 68.3 24.2 30.3 68.3 68.3 3.7 4.7 3.6 13.2 16.4 0.00 0.0000000 81.7
2021-09-20 23:10:00 68.1 24.7 30.6 68.1 68.1 4.4 4.7 3.9 0.6 21.7 0.00 0.0000000 81.6
2021-09-20 23:15:00 67.3 25.9 31.2 67.3 67.3 3.7 5.1 3.8 30.9 25.1 0.00 0.0000000 81.5
2021-09-20 23:20:00 67.0 25.9 30.8 67.0 67.0 3.3 5.1 3.8 14.3 25.0 0.00 0.0000000 81.4
2021-09-20 23:25:00 67.1 25.8 30.9 67.1 67.1 2.6 4.2 3.0 29.0 32.3 0.00 0.0000000 81.3
2021-09-20 23:30:00 66.7 25.4 30.2 66.7 66.7 3.0 3.5 2.3 35.7 26.7 0.00 0.0000000 81.2
2021-09-20 23:35:00 67.0 24.9 30.0 67.0 67.0 4.2 4.9 3.2 20.7 21.9 0.00 0.0000000 81.1
2021-09-20 23:40:00 66.4 25.5 30.1 66.4 66.4 5.5 6.3 3.8 32.5 23.3 0.00 0.0000000 81.0
2021-09-20 23:45:00 66.1 26.6 30.7 66.1 66.1 4.0 5.3 4.2 2.3 28.3 0.00 0.0000000 80.9
2021-09-20 23:50:00 66.3 26.2 30.5 66.3 66.3 3.3 5.5 4.1 13.8 30.2 0.00 0.0000000 80.8
2021-09-20 23:55:00 66.6 25.6 30.2 66.6 66.6 3.3 4.4 3.6 41.4 26.9 0.00 0.0000000 80.7

Data is courtesy of the NM Climate Center. DO NOT USE IN LEGAL PROCEEDINGS.